Paripiranga, Brazil
Current Conditions -  °F | °C
As of 2:00 PM on Friday 19 Dec 2014 (Local Time) from SBAR Reporting Station
Broken Clouds Broken Clouds  
Wind Chill: 82°   Ceiling: 8000
Heat Index: 87°   Visibility: 6mi
Dew Point: 72°   Wind: 20mph
Humidity: 70%   Direction: 110°ESE
Pressure: 29.85"   Gusts: NA
Location:  10.69°S, 37.86°W
Report Text: SBAR 191700Z 11017KT 9999 SCT015 BKN080 28/22 Q1011
Loading
Personal Weather Stations






























Interactive Weather Map New forecast layout! Learn more

10-Day Weather Forecast

Advertisements
Track Severe Weather on mobile